createdAt,value
2022-11-14T00:00:55.724Z,58.40
2022-11-14T00:03:22.446Z,59.50
2022-11-14T00:05:49.405Z,58.70
2022-11-14T00:08:25.307Z,58.70
2022-11-14T00:10:52.481Z,58.20
2022-11-14T00:13:19.987Z,57.70
2022-11-14T00:15:50.501Z,55.50
2022-11-14T00:18:18.274Z,56.80
2022-11-14T00:20:51.646Z,56.70
2022-11-14T00:23:19.172Z,57.80
2022-11-14T00:25:46.509Z,57.90
2022-11-14T00:28:13.299Z,58.70
2022-11-14T00:30:40.051Z,57.60
2022-11-14T00:33:06.725Z,56.20
2022-11-14T00:35:33.544Z,57.30
2022-11-14T00:38:00.445Z,56.40
2022-11-14T00:40:27.186Z,55.70
2022-11-14T00:42:53.826Z,56.80
2022-11-14T00:45:20.549Z,56.20
2022-11-14T00:47:47.274Z,58.10
2022-11-14T00:50:14.606Z,58.30
2022-11-14T00:52:41.312Z,57.10
2022-11-14T00:55:08.691Z,58.20
2022-11-14T00:57:35.381Z,57.90
2022-11-14T01:00:02.145Z,58.00
2022-11-14T01:02:28.944Z,57.40
2022-11-14T01:04:55.736Z,56.80
2022-11-14T01:07:22.436Z,57.40
2022-11-14T01:09:49.110Z,57.60
2022-11-14T01:12:15.761Z,57.60
2022-11-14T01:14:42.486Z,57.30
2022-11-14T01:17:09.281Z,56.00
2022-11-14T01:19:36.074Z,56.50
2022-11-14T01:22:06.195Z,57.60
2022-11-14T01:24:34.416Z,57.20
2022-11-14T01:27:01.378Z,56.20
2022-11-14T01:29:28.521Z,55.50
2022-11-14T01:31:55.783Z,56.50
2022-11-14T01:34:23.061Z,56.70
2022-11-14T01:36:49.766Z,55.10
2022-11-14T01:39:16.399Z,56.10
2022-11-14T01:41:43.107Z,54.70
2022-11-14T01:44:17.739Z,55.30
2022-11-14T01:46:48.630Z,54.40
2022-11-14T01:49:22.513Z,54.90
2022-11-14T01:51:58.453Z,55.90
2022-11-14T01:54:40.372Z,56.60
2022-11-14T01:57:08.216Z,56.40
2022-11-14T01:59:39.514Z,56.60
2022-11-14T02:02:14.114Z,56.10
2022-11-14T02:04:44.195Z,55.60
2022-11-14T02:07:12.070Z,53.60
2022-11-14T02:09:41.116Z,54.50
2022-11-14T02:12:09.942Z,53.70
2022-11-14T02:14:37.817Z,52.40
2022-11-14T02:17:28.453Z,50.30
2022-11-14T02:20:05.538Z,51.20
2022-11-14T02:22:32.598Z,52.90
2022-11-14T02:24:59.310Z,52.60
2022-11-14T02:27:26.073Z,53.20
2022-11-14T02:29:52.721Z,51.20
2022-11-14T02:32:19.494Z,52.60
2022-11-14T02:34:46.278Z,51.20
2022-11-14T02:37:12.921Z,50.40
2022-11-14T02:39:39.939Z,51.00
2022-11-14T02:42:06.867Z,50.40
2022-11-14T02:44:33.580Z,48.70
2022-11-14T02:47:00.231Z,51.10
2022-11-14T02:49:26.948Z,50.00
2022-11-14T02:51:59.932Z,51.10
2022-11-14T02:54:26.762Z,50.00
2022-11-14T02:56:53.510Z,50.70
2022-11-14T02:59:20.356Z,50.30
2022-11-14T03:01:47.157Z,50.90
2022-11-14T03:04:13.905Z,50.70
2022-11-14T03:06:40.694Z,50.90
2022-11-14T03:09:07.389Z,51.70
2022-11-14T03:11:34.116Z,53.00
2022-11-14T03:14:00.793Z,49.10
2022-11-14T03:16:27.678Z,49.30
2022-11-14T03:18:54.410Z,51.30
2022-11-14T03:21:22.345Z,49.70
2022-11-14T03:23:49.454Z,51.60
2022-11-14T03:26:16.835Z,51.30
2022-11-14T03:28:43.686Z,53.40
2022-11-14T03:31:11.968Z,50.60
2022-11-14T03:33:38.805Z,51.40
2022-11-14T03:36:06.256Z,51.30
2022-11-14T03:38:33.561Z,51.80
2022-11-14T03:41:00.599Z,52.50
2022-11-14T03:43:31.564Z,54.10
2022-11-14T03:46:00.131Z,52.70
2022-11-14T03:48:28.004Z,53.40
2022-11-14T03:50:55.495Z,54.80
2022-11-14T03:53:22.349Z,53.70
2022-11-14T03:55:49.164Z,53.90
2022-11-14T03:58:15.884Z,53.80
2022-11-14T04:00:42.813Z,53.90
2022-11-14T04:03:09.691Z,53.50
2022-11-14T04:05:36.510Z,54.20
2022-11-14T04:08:06.762Z,55.10
2022-11-14T04:10:33.551Z,55.20
2022-11-14T04:13:00.374Z,55.00
2022-11-14T04:15:27.107Z,55.20
2022-11-14T04:17:53.843Z,55.10
2022-11-14T04:20:20.591Z,55.30
2022-11-14T04:22:47.420Z,54.70
2022-11-14T04:25:14.159Z,55.10
2022-11-14T04:27:40.837Z,55.40
2022-11-14T04:30:08.020Z,55.80
2022-11-14T04:32:35.830Z,56.00
2022-11-14T04:35:02.668Z,55.70
2022-11-14T04:37:29.341Z,57.80
2022-11-14T04:39:58.868Z,57.00
2022-11-14T04:42:26.698Z,58.80
2022-11-14T04:44:53.540Z,57.80
2022-11-14T04:47:20.769Z,58.10
2022-11-14T04:49:47.423Z,58.60
2022-11-14T04:52:14.246Z,58.30
2022-11-14T04:54:40.934Z,58.40
2022-11-14T04:57:07.659Z,57.60
2022-11-14T04:59:34.334Z,58.40
2022-11-14T05:02:01.302Z,58.70
2022-11-14T05:04:27.990Z,61.20
2022-11-14T05:06:54.862Z,60.70
2022-11-14T05:09:21.613Z,59.60
2022-11-14T05:11:48.439Z,58.50
2022-11-14T05:14:15.222Z,60.00
2022-11-14T05:16:41.874Z,59.60
2022-11-14T05:19:08.552Z,58.20
2022-11-14T05:21:35.311Z,60.60
2022-11-14T05:24:02.053Z,60.70
2022-11-14T05:26:28.870Z,60.20
2022-11-14T05:28:55.702Z,60.90
2022-11-14T05:31:22.430Z,59.40
2022-11-14T05:33:49.194Z,60.90
2022-11-14T05:36:17.072Z,60.30
2022-11-14T05:38:43.803Z,61.40
2022-11-14T05:41:15.296Z,60.90
2022-11-14T05:43:42.335Z,62.30
2022-11-14T05:46:12.050Z,62.90
2022-11-14T05:48:39.151Z,61.60
2022-11-14T05:51:06.976Z,63.90
2022-11-14T05:53:34.360Z,62.30
2022-11-14T05:56:06.359Z,62.40
2022-11-14T05:58:34.242Z,62.80
2022-11-14T06:01:15.159Z,63.70
2022-11-14T06:03:44.254Z,63.50
2022-11-14T06:06:13.096Z,63.80
2022-11-14T06:08:40.136Z,62.40
2022-11-14T06:11:09.865Z,62.30
2022-11-14T06:13:36.883Z,63.20
2022-11-14T06:16:06.029Z,61.40
2022-11-14T06:18:34.142Z,62.50
2022-11-14T06:21:04.227Z,60.50
2022-11-14T06:23:31.181Z,60.80
2022-11-14T06:26:05.344Z,62.40
2022-11-14T06:28:32.561Z,62.70
2022-11-14T06:31:00.732Z,63.00
2022-11-14T06:33:28.458Z,62.00
2022-11-14T06:36:02.768Z,61.10
2022-11-14T06:38:32.048Z,60.40
2022-11-14T06:41:12.383Z,60.10
2022-11-14T06:43:40.948Z,61.10
2022-11-14T06:46:09.507Z,62.80
2022-11-14T06:48:39.157Z,61.20
2022-11-14T06:51:07.415Z,59.50
2022-11-14T06:53:35.637Z,60.80
2022-11-14T06:56:05.583Z,60.50
2022-11-14T06:58:44.045Z,61.60
2022-11-14T07:01:17.290Z,61.90
2022-11-14T07:03:45.223Z,60.40
2022-11-14T07:06:14.579Z,62.70
2022-11-14T07:08:41.679Z,60.30
2022-11-14T07:11:11.092Z,61.20
2022-11-14T07:13:38.425Z,62.00
2022-11-14T07:16:05.444Z,62.80
2022-11-14T07:18:33.629Z,64.50
2022-11-14T07:21:02.367Z,64.10
2022-11-14T07:23:30.190Z,65.00
2022-11-14T07:26:01.493Z,63.20
2022-11-14T07:28:28.642Z,66.40
2022-11-14T07:30:55.611Z,66.20
2022-11-14T07:33:22.370Z,69.50
2022-11-14T07:35:51.091Z,70.60
2022-11-14T07:38:17.815Z,70.30
2022-11-14T07:40:59.585Z,69.70
2022-11-14T07:43:27.351Z,67.80
2022-11-14T07:45:54.068Z,68.80
2022-11-14T07:48:21.962Z,71.70
2022-11-14T07:50:48.943Z,71.40
2022-11-14T07:53:17.746Z,69.00
2022-11-14T07:55:44.429Z,68.90
2022-11-14T07:58:11.243Z,68.30
2022-11-14T08:00:37.996Z,70.00
2022-11-14T08:03:07.417Z,70.70
2022-11-14T08:05:34.670Z,69.00
2022-11-14T08:08:01.366Z,69.50
2022-11-14T08:10:32.428Z,75.20
2022-11-14T08:13:25.138Z,75.90
2022-11-14T08:15:48.847Z,75.00
2022-11-14T08:18:15.540Z,75.60
2022-11-14T08:20:42.417Z,73.80
2022-11-14T08:23:10.428Z,74.20
2022-11-14T08:25:37.347Z,74.00
2022-11-14T08:28:04.289Z,77.10
2022-11-14T08:30:31.215Z,76.50
2022-11-14T08:32:57.926Z,75.70
2022-11-14T08:35:24.599Z,75.20
2022-11-14T08:37:51.277Z,75.80
2022-11-14T08:40:18.046Z,75.10
2022-11-14T08:42:44.799Z,77.20
2022-11-14T08:45:11.502Z,78.20
2022-11-14T08:47:38.220Z,78.60
2022-11-14T08:50:05.449Z,84.70
2022-11-14T08:52:32.128Z,82.30
2022-11-14T08:54:58.824Z,87.90
2022-11-14T08:57:25.506Z,86.60
2022-11-14T08:59:52.253Z,84.70
2022-11-14T09:02:18.916Z,91.60
2022-11-14T09:04:45.833Z,92.30
2022-11-14T09:07:12.630Z,89.70
2022-11-14T09:09:39.628Z,90.00
2022-11-14T09:12:06.497Z,90.20
2022-11-14T09:14:33.177Z,91.80
2022-11-14T09:17:05.575Z,91.00
2022-11-14T09:19:32.675Z,91.40
2022-11-14T09:21:59.367Z,93.20
2022-11-14T09:24:26.089Z,94.40
2022-11-14T09:26:56.703Z,93.30
2022-11-14T09:29:23.859Z,95.00
2022-11-14T09:31:52.274Z,95.20
2022-11-14T09:34:19.101Z,95.60
2022-11-14T09:36:46.671Z,94.60
2022-11-14T09:39:13.680Z,95.40
2022-11-14T09:41:56.470Z,94.20
2022-11-14T09:44:44.236Z,95.20
2022-11-14T09:47:23.567Z,94.10
2022-11-14T09:49:52.009Z,92.80
2022-11-14T09:52:38.109Z,93.10
2022-11-14T09:55:13.170Z,93.00
2022-11-14T09:57:44.158Z,93.30
2022-11-14T10:00:19.081Z,93.20
2022-11-14T10:03:00.868Z,94.10
2022-11-14T10:05:40.126Z,94.30
2022-11-14T10:08:15.622Z,94.70
2022-11-14T10:10:53.839Z,94.80
2022-11-14T10:13:23.530Z,95.40
2022-11-14T10:15:57.114Z,96.10
2022-11-14T10:18:46.397Z,94.80
2022-11-14T10:21:28.363Z,94.60
2022-11-14T10:24:13.274Z,96.40
2022-11-14T10:26:54.927Z,96.90
2022-11-14T10:29:38.189Z,97.30
2022-11-14T10:32:22.783Z,98.30
2022-11-14T10:34:56.963Z,97.90
2022-11-14T10:37:25.196Z,99.50
2022-11-14T10:39:57.750Z,99.10
2022-11-14T10:42:37.061Z,98.60
2022-11-14T10:45:05.012Z,99.20
2022-11-14T10:47:38.247Z,98.40
2022-11-14T10:50:19.818Z,99.00
2022-11-14T10:52:47.267Z,99.90
2022-11-14T10:55:18.857Z,99.90
2022-11-14T10:57:46.274Z,99.80
2022-11-14T11:00:22.819Z,96.80
2022-11-14T11:02:51.386Z,98.30
2022-11-14T11:05:19.909Z,97.50
2022-11-14T11:11:17.833Z,99.00
2022-11-14T11:13:55.597Z,97.70
2022-11-14T11:16:24.668Z,98.60
2022-11-14T11:18:51.808Z,98.90
2022-11-14T11:21:23.358Z,99.90
2022-11-14T11:23:55.405Z,99.90
2022-11-14T11:26:40.345Z,99.90
2022-11-14T11:29:09.800Z,99.90
2022-11-14T11:32:07.570Z,99.90
2022-11-14T11:34:34.926Z,99.70
2022-11-14T11:37:22.277Z,99.90
2022-11-14T11:40:02.206Z,99.90
2022-11-14T11:43:31.614Z,99.90
2022-11-14T11:45:29.472Z,99.90
2022-11-14T11:48:14.193Z,99.50
2022-11-14T11:50:41.683Z,99.60
2022-11-14T11:53:28.891Z,99.90
2022-11-14T11:56:00.351Z,98.90
2022-11-14T11:58:37.101Z,99.90
2022-11-14T12:01:03.826Z,99.20
2022-11-14T12:03:31.007Z,97.10
2022-11-14T12:06:15.429Z,99.90
2022-11-14T12:09:07.055Z,96.10
2022-11-14T12:11:36.620Z,96.20
2022-11-14T12:14:18.440Z,95.90
2022-11-14T12:17:16.113Z,97.10
2022-11-14T12:20:20.487Z,98.40
2022-11-14T12:23:06.546Z,99.70
2022-11-14T12:25:48.609Z,97.20
2022-11-14T12:28:59.220Z,98.20
2022-11-14T12:31:32.414Z,97.30
2022-11-14T12:33:59.783Z,96.90
2022-11-14T12:36:34.387Z,97.40
2022-11-14T12:39:02.171Z,98.60
2022-11-14T12:41:31.272Z,96.90
2022-11-14T12:44:18.160Z,99.80
2022-11-14T12:47:06.477Z,99.90
2022-11-14T12:49:38.692Z,98.20
2022-11-14T12:52:07.384Z,98.70
2022-11-14T12:54:47.632Z,99.90
2022-11-14T12:57:47.086Z,98.20
2022-11-14T13:00:14.209Z,98.20
2022-11-14T13:02:49.682Z,98.30
2022-11-14T13:05:22.605Z,96.50
2022-11-14T13:08:22.468Z,97.40
2022-11-14T13:10:49.259Z,99.00
2022-11-14T13:13:35.497Z,96.20
2022-11-14T13:16:41.847Z,95.60
2022-11-14T13:19:31.031Z,95.90
2022-11-14T13:22:15.980Z,94.60
2022-11-14T13:25:03.981Z,93.80
2022-11-14T13:28:05.487Z,92.60
2022-11-14T13:31:00.534Z,92.50
2022-11-14T13:33:50.716Z,92.40
2022-11-14T13:36:42.216Z,90.90
2022-11-14T13:39:24.193Z,90.20
2022-11-14T13:42:18.275Z,90.10
2022-11-14T13:44:51.470Z,89.50
2022-11-14T13:47:44.535Z,88.30
2022-11-14T13:50:14.438Z,87.70
2022-11-14T13:52:44.800Z,88.50
2022-11-14T13:55:23.398Z,87.00
2022-11-14T13:58:02.028Z,85.40
2022-11-14T14:00:31.894Z,84.90
2022-11-14T14:03:07.870Z,84.40
2022-11-14T14:05:53.428Z,83.60
2022-11-14T14:08:23.396Z,82.00
2022-11-14T14:11:02.246Z,82.10
2022-11-14T14:13:34.759Z,81.70
2022-11-14T14:16:09.886Z,80.90
2022-11-14T14:18:58.381Z,82.10
2022-11-14T14:21:37.347Z,79.40
2022-11-14T14:24:33.228Z,81.40
2022-11-14T14:27:32.986Z,81.20
2022-11-14T14:30:04.393Z,82.10
2022-11-14T14:32:31.117Z,82.80
2022-11-14T14:34:59.590Z,82.90
2022-11-14T14:37:29.958Z,83.60
2022-11-14T14:40:06.021Z,84.40
2022-11-14T14:42:39.692Z,83.90
2022-11-14T14:45:16.719Z,82.50
2022-11-14T14:51:33.999Z,81.20
2022-11-14T14:54:00.936Z,80.40
2022-11-14T14:56:28.660Z,80.60
2022-11-14T14:58:55.852Z,80.10
2022-11-14T15:01:33.452Z,77.90
2022-11-14T15:04:06.246Z,78.40
2022-11-14T15:06:38.444Z,78.20
2022-11-14T15:09:08.165Z,78.80
2022-11-14T15:11:35.765Z,80.50
2022-11-14T15:14:02.793Z,79.90
2022-11-14T15:16:29.935Z,79.90
2022-11-14T15:18:57.718Z,78.40
2022-11-14T15:21:27.355Z,77.80
2022-11-14T15:24:10.846Z,80.00
2022-11-14T15:26:37.653Z,78.40
2022-11-14T15:29:18.778Z,77.10
2022-11-14T15:31:59.918Z,79.20
2022-11-14T15:34:31.872Z,79.50
2022-11-14T15:37:10.856Z,79.40
2022-11-14T15:39:38.261Z,79.00
2022-11-14T15:42:28.628Z,78.60
2022-11-14T15:44:55.997Z,78.50
2022-11-14T15:47:28.111Z,79.50
2022-11-14T15:50:00.342Z,78.70
2022-11-14T15:52:46.477Z,77.80
2022-11-14T15:55:16.743Z,76.60
2022-11-14T15:57:48.448Z,77.30
2022-11-14T16:00:24.475Z,77.30
2022-11-14T16:02:51.921Z,75.20
2022-11-14T16:05:24.928Z,77.20
2022-11-14T16:07:51.956Z,76.10
2022-11-14T16:10:29.116Z,75.10
2022-11-14T16:12:55.866Z,75.80
2022-11-14T16:15:22.700Z,77.10
2022-11-14T16:17:50.545Z,77.20
2022-11-14T16:20:28.705Z,76.10
2022-11-14T16:22:56.599Z,76.00
2022-11-14T16:25:28.604Z,75.60
2022-11-14T16:27:55.333Z,73.20
2022-11-14T16:30:23.151Z,74.60
2022-11-14T16:32:50.857Z,76.20
2022-11-14T16:35:19.916Z,77.00
2022-11-14T16:37:47.961Z,77.20
2022-11-14T16:40:20.585Z,76.60
2022-11-14T16:42:47.424Z,78.40
2022-11-14T16:45:14.466Z,80.40
2022-11-14T16:47:41.281Z,79.40
2022-11-14T16:50:08.585Z,79.20
2022-11-14T16:52:35.410Z,79.80
2022-11-14T16:55:02.090Z,81.10
2022-11-14T16:57:28.784Z,80.80
2022-11-14T16:59:57.111Z,82.00
2022-11-14T17:02:24.474Z,81.50
2022-11-14T17:04:51.219Z,80.20
2022-11-14T17:07:22.739Z,80.90
2022-11-14T17:09:49.752Z,80.80
2022-11-14T17:12:16.574Z,82.00
2022-11-14T17:14:43.338Z,80.50
2022-11-14T17:17:10.030Z,80.70
2022-11-14T17:19:38.976Z,81.20
2022-11-14T17:22:05.637Z,81.40
2022-11-14T17:24:32.317Z,80.90
2022-11-14T17:26:59.008Z,81.60
2022-11-14T17:29:25.679Z,82.70
2022-11-14T17:31:52.342Z,82.00
2022-11-14T17:34:19.044Z,82.40
2022-11-14T17:36:45.747Z,83.60
2022-11-14T17:39:12.503Z,82.70
2022-11-14T17:41:39.247Z,84.50
2022-11-14T17:44:05.903Z,84.20
2022-11-14T17:46:32.629Z,85.20
2022-11-14T17:48:59.506Z,83.70
2022-11-14T17:51:26.538Z,83.80
2022-11-14T17:53:53.426Z,85.70
2022-11-14T17:56:22.361Z,86.70
2022-11-14T17:58:51.246Z,86.50
2022-11-14T18:01:21.840Z,88.60
2022-11-14T18:03:48.824Z,88.20
2022-11-14T18:06:17.314Z,88.60
2022-11-14T18:08:44.081Z,88.70
2022-11-14T18:11:12.457Z,89.40
2022-11-14T18:13:40.182Z,90.20
2022-11-14T18:16:10.677Z,90.30
2022-11-14T18:18:37.818Z,90.10
2022-11-14T18:21:17.434Z,90.60
2022-11-14T18:23:44.507Z,91.50
2022-11-14T18:26:13.258Z,90.20
2022-11-14T18:28:40.675Z,91.00
2022-11-14T18:31:10.658Z,90.70
2022-11-14T18:33:38.528Z,90.80
2022-11-14T18:36:06.594Z,91.20
2022-11-14T18:38:33.696Z,90.80
2022-11-14T18:41:01.918Z,91.70
2022-11-14T18:43:32.209Z,92.00
2022-11-14T18:46:13.336Z,93.10
2022-11-14T18:48:41.427Z,92.70
2022-11-14T18:51:12.460Z,92.80
2022-11-14T18:57:26.109Z,93.40
2022-11-14T18:59:52.968Z,93.60
2022-11-14T19:02:19.790Z,93.40
2022-11-14T19:04:46.626Z,93.60
2022-11-14T19:07:15.017Z,93.40
2022-11-14T19:09:44.219Z,93.10
2022-11-14T19:12:22.010Z,93.20
2022-11-14T19:14:50.526Z,92.90
2022-11-14T19:17:20.897Z,93.40
2022-11-14T19:19:49.427Z,93.20
2022-11-14T19:22:19.562Z,92.90
2022-11-14T19:24:46.381Z,92.20
2022-11-14T19:27:14.074Z,91.80
2022-11-14T19:29:40.904Z,92.20
2022-11-14T19:32:07.872Z,91.90
2022-11-14T19:34:34.577Z,91.50
2022-11-14T19:37:01.504Z,92.10
2022-11-14T19:39:28.865Z,92.20
2022-11-14T19:41:55.525Z,90.70
2022-11-14T19:44:22.231Z,91.00
2022-11-14T19:46:48.936Z,91.50
2022-11-14T19:49:15.743Z,91.70
2022-11-14T19:51:42.696Z,92.40
2022-11-14T19:54:10.203Z,91.60
2022-11-14T19:56:36.951Z,91.90
2022-11-14T19:59:09.552Z,92.00
2022-11-14T20:01:37.886Z,91.60
2022-11-14T20:04:04.802Z,92.20
2022-11-14T20:06:36.369Z,91.90
2022-11-14T20:09:06.973Z,92.60
2022-11-14T20:11:34.648Z,91.50
2022-11-14T20:14:02.575Z,90.70
2022-11-14T20:16:31.732Z,90.80
2022-11-14T20:19:00.795Z,90.50
2022-11-14T20:21:29.874Z,90.80
2022-11-14T20:23:57.214Z,90.20
2022-11-14T20:26:24.400Z,90.60
2022-11-14T20:28:53.954Z,90.00
2022-11-14T20:31:26.570Z,91.00
2022-11-14T20:33:54.091Z,90.50
2022-11-14T20:36:24.068Z,91.00
2022-11-14T20:38:54.168Z,91.80
2022-11-14T20:41:21.786Z,91.90
2022-11-14T20:43:48.669Z,91.80
2022-11-14T20:46:19.876Z,91.60
2022-11-14T20:48:47.206Z,92.00
2022-11-14T20:51:16.194Z,91.90
2022-11-14T20:53:43.877Z,92.10
2022-11-14T20:56:12.972Z,92.40
2022-11-14T20:58:43.958Z,92.10
2022-11-14T21:01:11.578Z,92.60
2022-11-14T21:03:38.688Z,93.10
2022-11-14T21:06:07.183Z,93.10
2022-11-14T21:08:35.794Z,92.10
2022-11-14T21:11:04.610Z,92.00
2022-11-14T21:13:52.299Z,92.10
2022-11-14T21:16:19.445Z,91.90
2022-11-14T21:18:48.086Z,92.30
2022-11-14T21:21:17.352Z,91.70
2022-11-14T21:23:45.110Z,91.00
2022-11-14T21:26:14.244Z,91.40
2022-11-14T21:28:44.045Z,91.70
2022-11-14T21:31:33.256Z,91.10
2022-11-14T21:34:02.359Z,91.80
2022-11-14T21:36:44.416Z,91.60
2022-11-14T21:39:14.816Z,90.60
2022-11-14T21:41:42.312Z,91.00
2022-11-14T21:44:12.000Z,91.80
2022-11-14T21:46:38.961Z,90.40
2022-11-14T21:49:05.677Z,89.80
2022-11-14T21:51:32.706Z,89.50
2022-11-14T21:53:59.694Z,90.00
2022-11-14T21:56:28.129Z,89.70
2022-11-14T21:59:12.512Z,88.90
2022-11-14T22:02:00.304Z,88.90
2022-11-14T22:04:27.099Z,89.80
2022-11-14T22:06:54.373Z,87.70
2022-11-14T22:09:21.207Z,87.90
2022-11-14T22:11:47.955Z,86.90
2022-11-14T22:14:14.732Z,86.70
2022-11-14T22:16:41.409Z,87.30
2022-11-14T22:19:08.143Z,85.70
2022-11-14T22:21:34.812Z,88.30
2022-11-14T22:24:01.687Z,88.50
2022-11-14T22:26:28.368Z,89.40
2022-11-14T22:28:55.111Z,89.20
2022-11-14T22:31:23.387Z,89.50
2022-11-14T22:33:51.943Z,90.00
2022-11-14T22:36:20.765Z,90.30
2022-11-14T22:38:48.119Z,90.40
2022-11-14T22:41:31.811Z,91.40
2022-11-14T22:43:59.816Z,90.80
2022-11-14T22:46:27.558Z,91.10
2022-11-14T22:48:54.999Z,90.00
2022-11-14T22:51:26.534Z,90.50
2022-11-14T22:53:55.303Z,90.50
2022-11-14T22:56:24.410Z,90.50
2022-11-14T22:58:51.410Z,91.60
2022-11-14T23:01:22.045Z,90.40
2022-11-14T23:03:52.501Z,90.60
2022-11-14T23:06:19.888Z,90.80
2022-11-14T23:08:46.839Z,91.60
2022-11-14T23:11:16.190Z,90.40
2022-11-14T23:13:53.829Z,89.80
2022-11-14T23:16:23.123Z,90.60
2022-11-14T23:18:50.527Z,91.20
2022-11-14T23:21:20.247Z,91.30
2022-11-14T23:23:51.912Z,90.50
2022-11-14T23:26:18.873Z,90.40
2022-11-14T23:28:45.864Z,90.60
2022-11-14T23:31:12.985Z,90.60
2022-11-14T23:33:39.733Z,90.90
2022-11-14T23:36:06.632Z,91.10
2022-11-14T23:38:33.418Z,91.00
2022-11-14T23:41:01.403Z,91.90
2022-11-14T23:43:29.112Z,91.00
2022-11-14T23:45:56.702Z,91.50
2022-11-14T23:48:23.791Z,91.70
2022-11-14T23:50:55.201Z,91.60
2022-11-14T23:53:22.474Z,91.90
2022-11-14T23:56:19.848Z,92.20
2022-11-14T23:58:46.626Z,91.30
